Etusivu
METAR-TAF:

METAR-TAF

Lentoasemat :

Trondheimin lentoasema

Trondheim, Norja

Leveyspiiri: 63-28N, Pituuspiiri: 010-56E, korkeus merenpinnasta: 1 m

Tämänhetkinen sää

Tämä raportti tehtiin 16 minuuttia sitten, kello 10.20 UTC
Tuuli 5 kn idästä
Lämpötila 3°C
Kosteus 70%
Ilmanpaine 1010 hPa
Näkyvyys 10 km tai enemmän
ei pilviä alle 1500 m:ssä eikä cumulonimbus-pilviä

METAR: ENVA 171020Z 10005KT CAVOK 03/M02 Q1010 NOSIG RMK WIND 670FT 12007KT

Aika: 11:36 (10:36 UTC)

Sääennuste

Tämä raportti tehtiin 1 tunti ja 23 minuuttia sitten, kello 09.13 UTC
Ennuste voimassa 17. päivästä klo 09 UTC - 18. päivään klo 06 UTC
Tuuli 7 kn idästä/kaakosta
Näkyvyys 10 km tai enemmän
Muutamia pilviä 4000 ft:n korkeudessa
Hajonneita pilviä 7000 ft:n korkeudessa

TAF: ENVA 170913Z 1709/1806 11007KT 9999 FEW040 BKN070

Säähavainnot ja -ennusteet yli 4000 lentoasemalta (METAR- ja TAF-raportit).

Käytössä olevat sääasemat on merkitty karttaan keltaisilla ja punaisilla pisteillä.

Aseta hiiri pisteen päälle nähdäksesi sääaseman nimen.

Klikkaa sitten nähdäksesi säähavainnot ja -ennusteet.

Kartan vaihtaminen: klikkaa mustalla rastilla varustettuja vihreitä pisteitä, niin voit zoomata sisään; viivalla varustettua vihreää pistettä, niin voit zoomata ulos tai vihreitä nuolia, niin pääset viereisille kartoille.


METAR-TAF: